sensor_id;sensor_type;location;lat;lon;timestamp;pressure;altitude;pressure_sealevel;temperature;humidity
60820;BME280;46641;48.904;9.126;2023-04-19T00:03:06;99153.19;;;15.34;51.77
60820;BME280;46641;48.904;9.126;2023-04-19T00:07:58;99157.97;;;15.39;51.76
60820;BME280;46641;48.904;9.126;2023-04-19T00:12:48;99154.53;;;15.38;51.59
60820;BME280;46641;48.904;9.126;2023-04-19T00:17:38;99149.25;;;15.38;51.64
60820;BME280;46641;48.904;9.126;2023-04-19T00:22:29;99152.88;;;15.37;51.53
60820;BME280;46641;48.904;9.126;2023-04-19T00:27:19;99154.34;;;15.32;51.85
60820;BME280;46641;48.904;9.126;2023-04-19T00:32:10;99152.22;;;15.35;51.60
60820;BME280;46641;48.904;9.126;2023-04-19T00:37:00;99149.06;;;15.32;51.64
60820;BME280;46641;48.904;9.126;2023-04-19T00:41:50;99144.63;;;15.32;51.65
60820;BME280;46641;48.904;9.126;2023-04-19T00:46:42;99134.06;;;15.24;51.64
60820;BME280;46641;48.904;9.126;2023-04-19T00:51:33;99135.84;;;15.24;51.60
60820;BME280;46641;48.904;9.126;2023-04-19T00:56:25;99135.72;;;15.25;51.76
60820;BME280;46641;48.904;9.126;2023-04-19T01:01:16;99137.66;;;15.23;51.70
60820;BME280;46641;48.904;9.126;2023-04-19T01:06:07;99136.03;;;15.22;51.85
60820;BME280;46641;48.904;9.126;2023-04-19T01:10:57;99130.06;;;15.20;51.79
60820;BME280;46641;48.904;9.126;2023-04-19T01:15:48;99123.50;;;15.24;51.50
60820;BME280;46641;48.904;9.126;2023-04-19T01:20:38;99119.53;;;15.20;51.76
60820;BME280;46641;48.904;9.126;2023-04-19T01:25:29;99114.75;;;15.15;51.88
60820;BME280;46641;48.904;9.126;2023-04-19T01:30:19;99119.84;;;15.09;52.13
60820;BME280;46641;48.904;9.126;2023-04-19T01:35:09;99110.28;;;15.08;51.81
60820;BME280;46641;48.904;9.126;2023-04-19T01:40:03;99103.72;;;15.12;51.93
60820;BME280;46641;48.904;9.126;2023-04-19T01:44:54;99094.31;;;15.09;51.72
60820;BME280;46641;48.904;9.126;2023-04-19T01:49:44;99096.63;;;15.12;51.82
60820;BME280;46641;48.904;9.126;2023-04-19T01:54:35;99086.72;;;15.06;51.86
60820;BME280;46641;48.904;9.126;2023-04-19T01:59:25;99085.56;;;15.09;51.84
60820;BME280;46641;48.904;9.126;2023-04-19T02:04:19;99080.94;;;15.03;51.93
60820;BME280;46641;48.904;9.126;2023-04-19T02:09:10;99080.63;;;15.06;51.91
60820;BME280;46641;48.904;9.126;2023-04-19T02:14:00;99072.72;;;15.06;51.94
60820;BME280;46641;48.904;9.126;2023-04-19T02:18:51;99068.59;;;15.03;51.96
60820;BME280;46641;48.904;9.126;2023-04-19T02:23:42;99068.75;;;15.02;51.93
60820;BME280;46641;48.904;9.126;2023-04-19T02:28:32;99075.69;;;15.03;51.84
60820;BME280;46641;48.904;9.126;2023-04-19T02:33:24;99065.44;;;15.00;51.99
60820;BME280;46641;48.904;9.126;2023-04-19T02:38:15;99058.53;;;14.99;52.18
60820;BME280;46641;48.904;9.126;2023-04-19T02:43:05;99064.78;;;14.98;52.13
60820;BME280;46641;48.904;9.126;2023-04-19T02:47:55;99057.69;;;14.98;52.30
60820;BME280;46641;48.904;9.126;2023-04-19T02:52:46;99059.81;;;14.94;51.96
60820;BME280;46641;48.904;9.126;2023-04-19T02:57:36;99051.59;;;14.98;51.96
60820;BME280;46641;48.904;9.126;2023-04-19T03:02:26;99055.41;;;14.95;52.01
60820;BME280;46641;48.904;9.126;2023-04-19T03:07:16;99047.81;;;14.92;52.13
60820;BME280;46641;48.904;9.126;2023-04-19T03:12:07;99053.09;;;14.92;52.00
60820;BME280;46641;48.904;9.126;2023-04-19T03:16:57;99043.53;;;14.91;52.13
60820;BME280;46641;48.904;9.126;2023-04-19T03:21:47;99050.59;;;14.90;52.13
60820;BME280;46641;48.904;9.126;2023-04-19T03:26:37;99045.34;;;14.90;52.23
60820;BME280;46641;48.904;9.126;2023-04-19T03:31:28;99035.13;;;14.87;52.24
60820;BME280;46641;48.904;9.126;2023-04-19T03:36:18;99036.78;;;14.88;52.30
60820;BME280;46641;48.904;9.126;2023-04-19T03:41:26;99036.25;;;14.85;52.35
60820;BME280;46641;48.904;9.126;2023-04-19T03:46:17;99039.22;;;14.82;52.32
60820;BME280;46641;48.904;9.126;2023-04-19T03:51:07;99033.28;;;14.80;52.39
60820;BME280;46641;48.904;9.126;2023-04-19T03:55:57;99029.16;;;14.77;52.54
60820;BME280;46641;48.904;9.126;2023-04-19T04:00:48;99029.03;;;14.79;52.42
60820;BME280;46641;48.904;9.126;2023-04-19T04:05:38;99026.88;;;14.82;52.30
60820;BME280;46641;48.904;9.126;2023-04-19T04:10:28;99034.94;;;14.81;52.44
60820;BME280;46641;48.904;9.126;2023-04-19T04:15:19;99032.63;;;14.78;52.49
60820;BME280;46641;48.904;9.126;2023-04-19T04:20:09;99034.63;;;14.76;52.33
60820;BME280;46641;48.904;9.126;2023-04-19T04:25:02;99034.44;;;14.77;52.33
60820;BME280;46641;48.904;9.126;2023-04-19T04:29:52;99032.78;;;14.76;52.33
60820;BME280;46641;48.904;9.126;2023-04-19T04:34:43;99033.13;;;14.73;52.55
60820;BME280;46641;48.904;9.126;2023-04-19T04:39:33;99043.66;;;14.73;52.35
60820;BME280;46641;48.904;9.126;2023-04-19T04:44:28;99038.72;;;14.70;52.48
60820;BME280;46641;48.904;9.126;2023-04-19T04:49:18;99040.97;;;14.65;52.62
60820;BME280;46641;48.904;9.126;2023-04-19T04:54:08;99042.31;;;14.61;52.77
60820;BME280;46641;48.904;9.126;2023-04-19T04:58:58;99052.16;;;14.59;52.50
60820;BME280;46641;48.904;9.126;2023-04-19T05:03:49;99050.84;;;14.55;52.60
60820;BME280;46641;48.904;9.126;2023-04-19T05:08:40;99045.88;;;14.52;52.63
60820;BME280;46641;48.904;9.126;2023-04-19T05:13:30;99044.91;;;14.53;52.64
60820;BME280;46641;48.904;9.126;2023-04-19T05:18:20;99048.44;;;13.75;54.73
60820;BME280;46641;48.904;9.126;2023-04-19T05:23:11;99057.38;;;14.16;53.58
60820;BME280;46641;48.904;9.126;2023-04-19T05:28:01;99051.06;;;14.35;53.16
60820;BME280;46641;48.904;9.126;2023-04-19T05:32:52;99057.19;;;14.44;52.74
60820;BME280;46641;48.904;9.126;2023-04-19T05:37:42;99065.75;;;14.46;52.79
60820;BME280;46641;48.904;9.126;2023-04-19T05:42:33;99060.81;;;14.43;52.86
60820;BME280;46641;48.904;9.126;2023-04-19T05:47:23;99059.34;;;14.48;52.68
60820;BME280;46641;48.904;9.126;2023-04-19T05:52:13;99054.38;;;14.45;52.59
60820;BME280;46641;48.904;9.126;2023-04-19T05:57:04;99063.78;;;14.48;52.67
60820;BME280;46641;48.904;9.126;2023-04-19T06:01:54;99070.06;;;14.47;52.72
60820;BME280;46641;48.904;9.126;2023-04-19T06:06:47;99053.09;;;14.49;52.61
60820;BME280;46641;48.904;9.126;2023-04-19T06:11:38;99053.94;;;14.50;52.64
60820;BME280;46641;48.904;9.126;2023-04-19T06:16:28;99055.88;;;14.48;52.68
60820;BME280;46641;48.904;9.126;2023-04-19T06:21:18;99050.13;;;14.44;52.63
60820;BME280;46641;48.904;9.126;2023-04-19T06:26:09;99050.44;;;14.41;52.55
60820;BME280;46641;48.904;9.126;2023-04-19T06:30:59;99054.06;;;14.40;52.63
60820;BME280;46641;48.904;9.126;2023-04-19T06:35:49;99061.28;;;14.38;52.72
60820;BME280;46641;48.904;9.126;2023-04-19T06:40:40;99062.28;;;14.37;52.81
60820;BME280;46641;48.904;9.126;2023-04-19T06:45:30;99063.91;;;14.38;52.58
60820;BME280;46641;48.904;9.126;2023-04-19T06:50:21;99055.69;;;14.41;52.94
60820;BME280;46641;48.904;9.126;2023-04-19T06:55:11;99060.97;;;14.41;52.64
60820;BME280;46641;48.904;9.126;2023-04-19T07:00:02;99058.31;;;14.41;52.71
60820;BME280;46641;48.904;9.126;2023-04-19T07:04:53;99058.69;;;14.46;52.69
60820;BME280;46641;48.904;9.126;2023-04-19T07:09:43;99049.63;;;14.49;52.59
60820;BME280;46641;48.904;9.126;2023-04-19T07:14:33;99041.94;;;14.56;52.35
60820;BME280;46641;48.904;9.126;2023-04-19T07:19:24;99047.38;;;14.62;52.35
60820;BME280;46641;48.904;9.126;2023-04-19T07:24:15;99037.88;;;14.69;52.06
60820;BME280;46641;48.904;9.126;2023-04-19T07:29:05;99031.78;;;14.69;52.45
60820;BME280;46641;48.904;9.126;2023-04-19T07:33:56;99034.94;;;14.72;52.18
60820;BME280;46641;48.904;9.126;2023-04-19T07:38:46;99027.03;;;14.72;52.23
60820;BME280;46641;48.904;9.126;2023-04-19T07:43:36;99031.81;;;14.77;52.26
60820;BME280;46641;48.904;9.126;2023-04-19T07:48:27;99019.44;;;14.78;52.30
60820;BME280;46641;48.904;9.126;2023-04-19T07:53:18;99021.28;;;14.85;51.99
60820;BME280;46641;48.904;9.126;2023-04-19T07:58:08;99011.41;;;14.87;51.96
60820;BME280;46641;48.904;9.126;2023-04-19T08:02:59;99017.00;;;14.92;51.89
60820;BME280;46641;48.904;9.126;2023-04-19T08:07:50;99019.00;;;14.99;51.58
60820;BME280;46641;48.904;9.126;2023-04-19T08:12:41;99029.22;;;15.02;51.74
60820;BME280;46641;48.904;9.126;2023-04-19T08:17:31;99016.03;;;15.02;51.67
60820;BME280;46641;48.904;9.126;2023-04-19T08:22:22;99010.59;;;15.03;51.56
60820;BME280;46641;48.904;9.126;2023-04-19T08:27:12;99021.31;;;15.02;51.65
60820;BME280;46641;48.904;9.126;2023-04-19T08:32:02;99016.88;;;15.02;51.77
60820;BME280;46641;48.904;9.126;2023-04-19T08:36:52;99013.72;;;15.07;51.99
60820;BME280;46641;48.904;9.126;2023-04-19T08:41:43;99010.09;;;15.08;52.11
60820;BME280;46641;48.904;9.126;2023-04-19T08:46:33;99004.84;;;15.16;51.93
60820;BME280;46641;48.904;9.126;2023-04-19T08:51:25;99005.19;;;15.21;51.82
60820;BME280;46641;48.904;9.126;2023-04-19T08:56:16;98998.72;;;15.24;51.88
60820;BME280;46641;48.904;9.126;2023-04-19T09:01:07;98984.25;;;15.28;51.68
60820;BME280;46641;48.904;9.126;2023-04-19T09:05:59;98984.88;;;15.38;51.73
60820;BME280;46641;48.904;9.126;2023-04-19T09:10:55;98984.72;;;15.48;51.46
60820;BME280;46641;48.904;9.126;2023-04-19T09:15:46;98981.56;;;15.52;51.35
60820;BME280;46641;48.904;9.126;2023-04-19T09:20:37;98979.41;;;15.56;51.25
60820;BME280;46641;48.904;9.126;2023-04-19T09:25:28;98970.19;;;15.60;51.19
60820;BME280;46641;48.904;9.126;2023-04-19T09:30:21;98958.63;;;15.61;51.31
60820;BME280;46641;48.904;9.126;2023-04-19T09:35:14;98949.72;;;15.62;51.07
60820;BME280;46641;48.904;9.126;2023-04-19T09:40:24;98954.34;;;15.68;50.88
60820;BME280;46641;48.904;9.126;2023-04-19T09:45:14;98954.84;;;15.72;50.91
60820;BME280;46641;48.904;9.126;2023-04-19T09:54:59;98934.56;;;15.64;50.48
60820;BME280;46641;48.904;9.126;2023-04-19T09:59:50;98929.81;;;15.43;51.17
60820;BME280;46641;48.904;9.126;2023-04-19T10:04:40;98928.50;;;15.47;50.93
60820;BME280;46641;48.904;9.126;2023-04-19T10:09:33;98929.66;;;15.36;51.19
60820;BME280;46641;48.904;9.126;2023-04-19T10:14:24;98930.69;;;15.19;51.54
60820;BME280;46641;48.904;9.126;2023-04-19T10:19:17;98921.47;;;15.07;51.87
60820;BME280;46641;48.904;9.126;2023-04-19T10:24:08;98924.59;;;15.02;52.02
60820;BME280;46641;48.904;9.126;2023-04-19T10:28:59;98920.47;;;14.75;53.63
60820;BME280;46641;48.904;9.126;2023-04-19T10:33:49;98917.75;;;15.49;51.64
60820;BME280;46641;48.904;9.126;2023-04-19T10:38:47;98910.91;;;15.87;50.29
60820;BME280;46641;48.904;9.126;2023-04-19T10:48:37;98904.53;;;16.12;49.87
60820;BME280;46641;48.904;9.126;2023-04-19T11:04:00;98895.94;;;14.99;53.60
60820;BME280;46641;48.904;9.126;2023-04-19T11:08:51;98892.81;;;15.59;52.06
60820;BME280;46641;48.904;9.126;2023-04-19T11:13:42;98887.78;;;15.89;51.28
60820;BME280;46641;48.904;9.126;2023-04-19T11:18:32;98887.28;;;15.94;51.06
60820;BME280;46641;48.904;9.126;2023-04-19T11:23:22;98871.41;;;16.02;51.33
60820;BME280;46641;48.904;9.126;2023-04-19T11:28:14;98869.41;;;16.04;51.32
60820;BME280;46641;48.904;9.126;2023-04-19T11:33:06;98869.41;;;16.04;51.61
60820;BME280;46641;48.904;9.126;2023-04-19T11:37:57;98869.88;;;16.07;51.51
60820;BME280;46641;48.904;9.126;2023-04-19T11:42:54;98857.47;;;16.16;51.73
60820;BME280;46641;48.904;9.126;2023-04-19T11:47:46;98858.28;;;16.17;51.35
60820;BME280;46641;48.904;9.126;2023-04-19T11:52:37;98851.19;;;16.17;51.13
60820;BME280;46641;48.904;9.126;2023-04-19T11:57:30;98846.31;;;16.06;51.75
60820;BME280;46641;48.904;9.126;2023-04-19T12:02:21;98851.63;;;15.98;52.04
60820;BME280;46641;48.904;9.126;2023-04-19T12:07:11;98852.63;;;15.97;51.92
60820;BME280;46641;48.904;9.126;2023-04-19T12:12:02;98844.59;;;15.90;51.83
60820;BME280;46641;48.904;9.126;2023-04-19T12:17:06;98845.94;;;15.86;51.99
60820;BME280;46641;48.904;9.126;2023-04-19T12:22:06;98854.00;;;15.84;52.12
60820;BME280;46641;48.904;9.126;2023-04-19T12:26:57;98852.53;;;15.82;51.68
60820;BME280;46641;48.904;9.126;2023-04-19T12:31:47;98841.03;;;15.75;51.49
60820;BME280;46641;48.904;9.126;2023-04-19T12:36:38;98849.41;;;15.78;51.48
60820;BME280;46641;48.904;9.126;2023-04-19T12:41:28;98844.78;;;15.80;51.53
60820;BME280;46641;48.904;9.126;2023-04-19T12:46:18;98842.84;;;15.74;51.72
60820;BME280;46641;48.904;9.126;2023-04-19T12:51:09;98838.38;;;15.75;51.67
60820;BME280;46641;48.904;9.126;2023-04-19T12:55:59;98839.88;;;15.77;51.45
60820;BME280;46641;48.904;9.126;2023-04-19T13:00:49;98830.47;;;15.75;51.59
60820;BME280;46641;48.904;9.126;2023-04-19T13:05:40;98822.72;;;15.73;51.54
60820;BME280;46641;48.904;9.126;2023-04-19T13:10:30;98818.09;;;15.75;51.52
60820;BME280;46641;48.904;9.126;2023-04-19T13:15:21;98803.91;;;15.76;51.47
60820;BME280;46641;48.904;9.126;2023-04-19T13:20:11;98795.81;;;15.78;51.55
60820;BME280;46641;48.904;9.126;2023-04-19T13:25:02;98795.63;;;15.79;51.23
60820;BME280;46641;48.904;9.126;2023-04-19T13:29:54;98788.72;;;15.78;51.25
60820;BME280;46641;48.904;9.126;2023-04-19T13:34:44;98783.03;;;15.11;52.89
60820;BME280;46641;48.904;9.126;2023-04-19T13:39:35;98781.06;;;15.52;51.90
60820;BME280;46641;48.904;9.126;2023-04-19T13:44:26;98767.66;;;15.70;51.27
60820;BME280;46641;48.904;9.126;2023-04-19T13:49:17;98762.78;;;15.82;50.98
60820;BME280;46641;48.904;9.126;2023-04-19T13:54:07;98760.28;;;15.88;50.76
60820;BME280;46641;48.904;9.126;2023-04-19T13:58:58;98744.09;;;15.92;50.69
60820;BME280;46641;48.904;9.126;2023-04-19T14:03:48;98748.38;;;15.93;50.86
60820;BME280;46641;48.904;9.126;2023-04-19T14:08:38;98743.75;;;15.95;50.53
60820;BME280;46641;48.904;9.126;2023-04-19T14:13:28;98738.47;;;15.95;50.44
60820;BME280;46641;48.904;9.126;2023-04-19T14:18:19;98726.06;;;15.95;50.78
60820;BME280;46641;48.904;9.126;2023-04-19T14:23:09;98727.75;;;15.96;50.51
60820;BME280;46641;48.904;9.126;2023-04-19T14:27:59;98713.72;;;15.96;50.65
60820;BME280;46641;48.904;9.126;2023-04-19T14:32:49;98709.06;;;15.98;50.83
60820;BME280;46641;48.904;9.126;2023-04-19T14:37:40;98700.78;;;16.01;50.60
60820;BME280;46641;48.904;9.126;2023-04-19T14:42:30;98697.16;;;16.02;50.68
60820;BME280;46641;48.904;9.126;2023-04-19T14:47:20;98691.34;;;16.06;50.65
60820;BME280;46641;48.904;9.126;2023-04-19T14:52:10;98696.09;;;16.11;50.55
60820;BME280;46641;48.904;9.126;2023-04-19T14:57:01;98685.47;;;16.19;50.19
60820;BME280;46641;48.904;9.126;2023-04-19T15:01:51;98690.38;;;16.22;50.40
60820;BME280;46641;48.904;9.126;2023-04-19T15:06:42;98693.50;;;16.26;50.58
60820;BME280;46641;48.904;9.126;2023-04-19T15:11:32;98695.78;;;16.29;50.47
60820;BME280;46641;48.904;9.126;2023-04-19T15:16:22;98699.03;;;16.31;50.06
60820;BME280;46641;48.904;9.126;2023-04-19T15:21:13;98683.84;;;16.33;50.33
60820;BME280;46641;48.904;9.126;2023-04-19T15:26:03;98684.66;;;16.33;50.32
60820;BME280;46641;48.904;9.126;2023-04-19T15:30:59;98678.00;;;16.38;50.05
60820;BME280;46641;48.904;9.126;2023-04-19T15:35:51;98676.03;;;16.40;50.32
60820;BME280;46641;48.904;9.126;2023-04-19T15:40:41;98659.16;;;16.41;50.09
60820;BME280;46641;48.904;9.126;2023-04-19T15:45:31;98665.00;;;16.36;49.59
60820;BME280;46641;48.904;9.126;2023-04-19T15:50:22;98662.16;;;16.38;50.07
60820;BME280;46641;48.904;9.126;2023-04-19T15:55:12;98654.16;;;16.46;49.85
60820;BME280;46641;48.904;9.126;2023-04-19T16:00:03;98667.38;;;16.46;49.38
60820;BME280;46641;48.904;9.126;2023-04-19T16:04:53;98670.81;;;16.46;47.81
60820;BME280;46641;48.904;9.126;2023-04-19T16:09:43;98657.88;;;16.36;45.78
60820;BME280;46641;48.904;9.126;2023-04-19T16:14:34;98660.00;;;16.41;45.83
60820;BME280;46641;48.904;9.126;2023-04-19T16:19:24;98657.22;;;16.34;44.88
60820;BME280;46641;48.904;9.126;2023-04-19T16:24:14;98658.69;;;16.37;43.96
60820;BME280;46641;48.904;9.126;2023-04-19T16:29:05;98663.81;;;16.39;43.71
60820;BME280;46641;48.904;9.126;2023-04-19T16:33:55;98659.88;;;16.34;43.46
60820;BME280;46641;48.904;9.126;2023-04-19T16:38:45;98662.00;;;16.39;43.73
60820;BME280;46641;48.904;9.126;2023-04-19T16:43:36;98648.41;;;16.27;42.95
60820;BME280;46641;48.904;9.126;2023-04-19T16:48:26;98658.56;;;16.01;39.32
60820;BME280;46641;48.904;9.126;2023-04-19T16:53:16;98654.66;;;16.11;42.07
60820;BME280;46641;48.904;9.126;2023-04-19T16:58:06;98658.13;;;16.12;42.26
60820;BME280;46641;48.904;9.126;2023-04-19T17:02:57;98657.03;;;16.21;42.02
60820;BME280;46641;48.904;9.126;2023-04-19T17:07:49;98651.03;;;16.27;42.28
60820;BME280;46641;48.904;9.126;2023-04-19T17:12:39;98654.41;;;16.21;42.02
60820;BME280;46641;48.904;9.126;2023-04-19T17:17:30;98658.16;;;16.27;42.42
60820;BME280;46641;48.904;9.126;2023-04-19T17:22:20;98656.31;;;16.27;42.39
60820;BME280;46641;48.904;9.126;2023-04-19T17:27:10;98670.69;;;16.25;41.34
60820;BME280;46641;48.904;9.126;2023-04-19T17:32:01;98662.69;;;16.18;42.03
60820;BME280;46641;48.904;9.126;2023-04-19T17:36:51;98667.03;;;16.11;39.85
60820;BME280;46641;48.904;9.126;2023-04-19T17:41:41;98660.03;;;16.03;41.56
60820;BME280;46641;48.904;9.126;2023-04-19T17:46:33;98665.72;;;15.92;41.48
60820;BME280;46641;48.904;9.126;2023-04-19T17:51:24;98666.22;;;15.96;41.83
60820;BME280;46641;48.904;9.126;2023-04-19T17:56:14;98666.56;;;15.93;42.26
60820;BME280;46641;48.904;9.126;2023-04-19T18:01:05;98674.75;;;15.98;42.86
60820;BME280;46641;48.904;9.126;2023-04-19T18:05:57;98675.81;;;15.88;42.12
60820;BME280;46641;48.904;9.126;2023-04-19T18:10:47;98684.03;;;15.94;41.43
60820;BME280;46641;48.904;9.126;2023-04-19T18:15:37;98688.03;;;15.89;41.04
60820;BME280;46641;48.904;9.126;2023-04-19T18:20:28;98683.56;;;15.90;42.67
60820;BME280;46641;48.904;9.126;2023-04-19T18:25:18;98692.47;;;15.89;42.37
60820;BME280;46641;48.904;9.126;2023-04-19T18:30:09;98704.56;;;15.83;42.32
60820;BME280;46641;48.904;9.126;2023-04-19T18:35:00;98706.09;;;15.78;41.77
60820;BME280;46641;48.904;9.126;2023-04-19T18:39:53;98716.84;;;15.76;42.17
60820;BME280;46641;48.904;9.126;2023-04-19T18:44:43;98707.31;;;15.67;42.68
60820;BME280;46641;48.904;9.126;2023-04-19T18:49:33;98704.69;;;15.67;42.67
60820;BME280;46641;48.904;9.126;2023-04-19T18:54:24;98720.00;;;15.63;40.48
60820;BME280;46641;48.904;9.126;2023-04-19T18:59:14;98721.09;;;15.46;42.41
60820;BME280;46641;48.904;9.126;2023-04-19T19:04:05;98725.19;;;15.49;42.51
60820;BME280;46641;48.904;9.126;2023-04-19T19:08:55;98729.81;;;15.47;42.84
60820;BME280;46641;48.904;9.126;2023-04-19T19:13:46;98722.03;;;15.53;43.46
60820;BME280;46641;48.904;9.126;2023-04-19T19:18:36;98726.81;;;15.58;43.49
60820;BME280;46641;48.904;9.126;2023-04-19T19:23:26;98722.09;;;15.45;43.42
60820;BME280;46641;48.904;9.126;2023-04-19T19:28:17;98725.41;;;15.39;43.40
60820;BME280;46641;48.904;9.126;2023-04-19T19:33:07;98728.88;;;15.39;43.20
60820;BME280;46641;48.904;9.126;2023-04-19T19:37:57;98734.34;;;15.38;43.65
60820;BME280;46641;48.904;9.126;2023-04-19T19:42:48;98735.16;;;15.38;44.25
60820;BME280;46641;48.904;9.126;2023-04-19T19:47:38;98734.16;;;15.39;44.29
60820;BME280;46641;48.904;9.126;2023-04-19T19:52:28;98741.44;;;15.37;44.38
60820;BME280;46641;48.904;9.126;2023-04-19T19:57:19;98739.41;;;15.39;44.67
60820;BME280;46641;48.904;9.126;2023-04-19T20:02:09;98734.84;;;15.33;44.63
60820;BME280;46641;48.904;9.126;2023-04-19T20:07:00;98738.94;;;15.36;45.20
60820;BME280;46641;48.904;9.126;2023-04-19T20:11:50;98738.44;;;15.40;45.56
60820;BME280;46641;48.904;9.126;2023-04-19T20:16:41;98735.50;;;15.35;45.46
60820;BME280;46641;48.904;9.126;2023-04-19T20:21:31;98737.47;;;15.33;46.06
60820;BME280;46641;48.904;9.126;2023-04-19T20:26:21;98735.00;;;15.32;46.35
60820;BME280;46641;48.904;9.126;2023-04-19T20:31:11;98737.19;;;15.28;45.68
60820;BME280;46641;48.904;9.126;2023-04-19T20:36:02;98734.91;;;15.17;45.97
60820;BME280;46641;48.904;9.126;2023-04-19T20:40:52;98727.84;;;15.09;46.31
60820;BME280;46641;48.904;9.126;2023-04-19T20:45:42;98732.94;;;15.11;46.51
60820;BME280;46641;48.904;9.126;2023-04-19T20:50:33;98738.56;;;15.08;46.95
60820;BME280;46641;48.904;9.126;2023-04-19T20:55:24;98732.66;;;15.06;47.30
60820;BME280;46641;48.904;9.126;2023-04-19T21:00:14;98729.19;;;15.05;47.25
60820;BME280;46641;48.904;9.126;2023-04-19T21:05:05;98731.34;;;15.02;47.49
60820;BME280;46641;48.904;9.126;2023-04-19T21:09:56;98730.03;;;14.98;47.63
60820;BME280;46641;48.904;9.126;2023-04-19T21:14:46;98728.44;;;14.88;46.87
60820;BME280;46641;48.904;9.126;2023-04-19T21:19:37;98726.47;;;14.82;46.99
60820;BME280;46641;48.904;9.126;2023-04-19T21:24:27;98713.31;;;14.74;46.96
60820;BME280;46641;48.904;9.126;2023-04-19T21:29:18;98721.06;;;14.67;46.67
60820;BME280;46641;48.904;9.126;2023-04-19T21:34:09;98713.69;;;14.63;46.76
60820;BME280;46641;48.904;9.126;2023-04-19T21:38:59;98709.38;;;14.62;47.47
60820;BME280;46641;48.904;9.126;2023-04-19T21:43:49;98709.38;;;14.62;47.68
60820;BME280;46641;48.904;9.126;2023-04-19T21:48:40;98708.56;;;14.61;48.13
60820;BME280;46641;48.904;9.126;2023-04-19T21:53:30;98711.38;;;14.60;47.88
60820;BME280;46641;48.904;9.126;2023-04-19T21:58:20;98710.56;;;14.59;47.95
60820;BME280;46641;48.904;9.126;2023-04-19T22:03:11;98702.81;;;14.58;48.01
60820;BME280;46641;48.904;9.126;2023-04-19T22:08:02;98702.34;;;14.54;48.38
60820;BME280;46641;48.904;9.126;2023-04-19T22:12:54;98690.31;;;14.52;48.56
60820;BME280;46641;48.904;9.126;2023-04-19T22:17:44;98688.81;;;14.49;48.34
60820;BME280;46641;48.904;9.126;2023-04-19T22:22:35;98686.50;;;14.46;48.83
60820;BME280;46641;48.904;9.126;2023-04-19T22:27:25;98687.03;;;14.41;48.78
60820;BME280;46641;48.904;9.126;2023-04-19T22:32:15;98681.28;;;14.38;48.66
60820;BME280;46641;48.904;9.126;2023-04-19T22:37:06;98679.16;;;14.33;48.65
60820;BME280;46641;48.904;9.126;2023-04-19T22:41:56;98669.78;;;14.31;48.90
60820;BME280;46641;48.904;9.126;2023-04-19T22:46:46;98660.22;;;14.30;48.86
60820;BME280;46641;48.904;9.126;2023-04-19T22:51:37;98658.28;;;14.23;49.12
60820;BME280;46641;48.904;9.126;2023-04-19T22:56:27;98660.22;;;14.21;48.99
60820;BME280;46641;48.904;9.126;2023-04-19T23:01:18;98655.31;;;14.18;49.18
60820;BME280;46641;48.904;9.126;2023-04-19T23:06:08;98653.34;;;14.12;49.17
60820;BME280;46641;48.904;9.126;2023-04-19T23:10:59;98644.78;;;14.10;49.28
60820;BME280;46641;48.904;9.126;2023-04-19T23:15:49;98635.56;;;14.06;49.26
60820;BME280;46641;48.904;9.126;2023-04-19T23:20:39;98625.38;;;14.03;49.51
60820;BME280;46641;48.904;9.126;2023-04-19T23:25:30;98624.88;;;13.99;49.29
60820;BME280;46641;48.904;9.126;2023-04-19T23:30:21;98626.22;;;13.95;49.14
60820;BME280;46641;48.904;9.126;2023-04-19T23:35:11;98615.03;;;13.93;49.49
60820;BME280;46641;48.904;9.126;2023-04-19T23:40:04;98614.53;;;13.90;49.64
60820;BME280;46641;48.904;9.126;2023-04-19T23:44:57;98614.06;;;13.86;49.48
60820;BME280;46641;48.904;9.126;2023-04-19T23:49:47;98607.16;;;13.77;49.93
60820;BME280;46641;48.904;9.126;2023-04-19T23:54:38;98600.25;;;13.76;49.86
60820;BME280;46641;48.904;9.126;2023-04-19T23:59:28;98603.22;;;13.73;49.80
